Details for Norwegian Air Shuttle at LEPA




Go Back


Latest METAR
Local Time

LEPA 240730Z 06003KT 020V100 CAVOK 21/15 Q1018 NOSIG

24/05/2018, 09:51:18

Description
Results
Norwegian Air Shuttle Logo
Number of Pilots based at LEPA
0 Pilots Based here
Number of Norwegian Air Shuttle Flights Departed from LEPA
0 Flights Departed
Number of Norwegian Air Shuttle Flights Arrived at LEPA
2 Flights Arrived
Number of Norwegian Air Shuttle Schedules Departing from LEPA
2 Schedules
Number of Norwegian Air Shuttle Schedules Arriving at LEPA
6 Schedules
Number of Norwegian Air Shuttle Schedules Departing from LEPA availible today
1 Schedules Today
Number of Norwegian Air Shuttle Schedules Arriving at LEPA availible today
2 Schedules Today
Average Landing Rate at LEPA
-178 fpm
Norwegian Air Shuttle Average Landing Rate at LEPA
-158 fpm
Total Fuel Purchased at LEPA by Norwegian Air Shuttle
0.00 kgs / 0.00 lbs

Pilots Based at LEPA


Pilot ID
Pilot Name
Pilot Rank
No. of Flights
No. of Flying Hours
There are no pilots assigned to this hub!   Will you be the first?
Content